sensor_id;sensor_type;location;lat;lon;timestamp;P1;durP1;ratioP1;P2;durP2;ratioP2
7835;SDS011;3963;42.658;23.298;2022-09-24T00:01:33;10.67;;;6.40;;
7835;SDS011;3963;42.658;23.298;2022-09-24T00:04:03;10.37;;;5.90;;
7835;SDS011;3963;42.658;23.298;2022-09-24T00:06:32;8.73;;;5.80;;
7835;SDS011;3963;42.658;23.298;2022-09-24T00:09:02;13.73;;;6.30;;
7835;SDS011;3963;42.658;23.298;2022-09-24T00:11:29;10.43;;;6.33;;
7835;SDS011;3963;42.658;23.298;2022-09-24T00:13:56;11.70;;;6.20;;
7835;SDS011;3963;42.658;23.298;2022-09-24T00:16:26;11.10;;;6.67;;
7835;SDS011;3963;42.658;23.298;2022-09-24T00:18:55;8.63;;;6.37;;
7835;SDS011;3963;42.658;23.298;2022-09-24T00:21:24;13.50;;;6.77;;
7835;SDS011;3963;42.658;23.298;2022-09-24T00:23:54;12.37;;;6.73;;
7835;SDS011;3963;42.658;23.298;2022-09-24T00:26:22;10.87;;;6.63;;
7835;SDS011;3963;42.658;23.298;2022-09-24T00:29:07;9.90;;;6.13;;
7835;SDS011;3963;42.658;23.298;2022-09-24T00:31:37;9.00;;;6.93;;
7835;SDS011;3963;42.658;23.298;2022-09-24T00:34:04;11.83;;;7.57;;
7835;SDS011;3963;42.658;23.298;2022-09-24T00:36:31;11.57;;;7.50;;
7835;SDS011;3963;42.658;23.298;2022-09-24T00:38:58;10.90;;;6.63;;
7835;SDS011;3963;42.658;23.298;2022-09-24T00:41:26;14.33;;;7.40;;
7835;SDS011;3963;42.658;23.298;2022-09-24T00:43:54;14.40;;;6.67;;
7835;SDS011;3963;42.658;23.298;2022-09-24T00:46:22;11.60;;;6.63;;
7835;SDS011;3963;42.658;23.298;2022-09-24T00:48:55;11.30;;;7.73;;
7835;SDS011;3963;42.658;23.298;2022-09-24T00:51:26;10.57;;;6.97;;
7835;SDS011;3963;42.658;23.298;2022-09-24T00:53:56;10.17;;;6.50;;
7835;SDS011;3963;42.658;23.298;2022-09-24T00:56:27;16.53;;;7.50;;
7835;SDS011;3963;42.658;23.298;2022-09-24T00:58:56;10.90;;;7.37;;
7835;SDS011;3963;42.658;23.298;2022-09-24T01:01:26;11.43;;;7.07;;
7835;SDS011;3963;42.658;23.298;2022-09-24T01:03:56;10.97;;;6.50;;
7835;SDS011;3963;42.658;23.298;2022-09-24T01:06:24;14.30;;;7.07;;
7835;SDS011;3963;42.658;23.298;2022-09-24T01:08:51;9.60;;;6.60;;
7835;SDS011;3963;42.658;23.298;2022-09-24T01:17:13;9.30;;;5.97;;
7835;SDS011;3963;42.658;23.298;2022-09-24T01:19:54;9.13;;;5.80;;
7835;SDS011;3963;42.658;23.298;2022-09-24T01:22:56;13.37;;;7.13;;
7835;SDS011;3963;42.658;23.298;2022-09-24T01:25:39;10.53;;;6.70;;
7835;SDS011;3963;42.658;23.298;2022-09-24T01:28:27;12.80;;;7.27;;
7835;SDS011;3963;42.658;23.298;2022-09-24T01:31:06;11.67;;;7.20;;
7835;SDS011;3963;42.658;23.298;2022-09-24T01:33:40;10.17;;;7.03;;
7835;SDS011;3963;42.658;23.298;2022-09-24T01:36:10;10.83;;;6.43;;
7835;SDS011;3963;42.658;23.298;2022-09-24T01:38:39;9.00;;;5.70;;
7835;SDS011;3963;42.658;23.298;2022-09-24T01:41:09;7.77;;;5.90;;
7835;SDS011;3963;42.658;23.298;2022-09-24T01:43:37;9.43;;;5.83;;
7835;SDS011;3963;42.658;23.298;2022-09-24T01:46:06;8.17;;;5.63;;
7835;SDS011;3963;42.658;23.298;2022-09-24T01:48:36;9.63;;;5.70;;
7835;SDS011;3963;42.658;23.298;2022-09-24T01:51:05;8.30;;;5.63;;
7835;SDS011;3963;42.658;23.298;2022-09-24T01:53:36;9.53;;;6.23;;
7835;SDS011;3963;42.658;23.298;2022-09-24T01:56:09;8.47;;;5.00;;
7835;SDS011;3963;42.658;23.298;2022-09-24T01:58:42;9.80;;;5.83;;
7835;SDS011;3963;42.658;23.298;2022-09-24T02:01:17;9.13;;;4.63;;
7835;SDS011;3963;42.658;23.298;2022-09-24T02:03:50;9.73;;;5.17;;
7835;SDS011;3963;42.658;23.298;2022-09-24T02:06:22;10.17;;;5.40;;
7835;SDS011;3963;42.658;23.298;2022-09-24T02:08:55;9.63;;;5.90;;
7835;SDS011;3963;42.658;23.298;2022-09-24T02:11:23;9.03;;;5.93;;
7835;SDS011;3963;42.658;23.298;2022-09-24T02:13:53;7.77;;;5.50;;
7835;SDS011;3963;42.658;23.298;2022-09-24T02:16:27;7.27;;;4.90;;
7835;SDS011;3963;42.658;23.298;2022-09-24T02:18:59;8.50;;;5.47;;
7835;SDS011;3963;42.658;23.298;2022-09-24T02:21:30;11.30;;;5.60;;
7835;SDS011;3963;42.658;23.298;2022-09-24T02:23:59;7.50;;;5.70;;
7835;SDS011;3963;42.658;23.298;2022-09-24T02:26:31;8.37;;;5.23;;
7835;SDS011;3963;42.658;23.298;2022-09-24T02:28:57;8.43;;;5.63;;
7835;SDS011;3963;42.658;23.298;2022-09-24T02:31:27;7.80;;;5.40;;
7835;SDS011;3963;42.658;23.298;2022-09-24T02:33:57;6.97;;;5.23;;
7835;SDS011;3963;42.658;23.298;2022-09-24T02:36:46;8.00;;;5.57;;
7835;SDS011;3963;42.658;23.298;2022-09-24T02:39:14;7.40;;;5.37;;
7835;SDS011;3963;42.658;23.298;2022-09-24T02:41:43;9.10;;;5.70;;
7835;SDS011;3963;42.658;23.298;2022-09-24T02:44:12;7.33;;;5.23;;
7835;SDS011;3963;42.658;23.298;2022-09-24T02:46:41;7.17;;;5.00;;
7835;SDS011;3963;42.658;23.298;2022-09-24T02:49:08;9.13;;;5.37;;
7835;SDS011;3963;42.658;23.298;2022-09-24T02:51:35;8.63;;;5.47;;
7835;SDS011;3963;42.658;23.298;2022-09-24T02:54:02;7.77;;;5.47;;
7835;SDS011;3963;42.658;23.298;2022-09-24T02:56:30;7.10;;;5.20;;
7835;SDS011;3963;42.658;23.298;2022-09-24T02:58:58;9.67;;;5.70;;
7835;SDS011;3963;42.658;23.298;2022-09-24T03:01:26;7.60;;;6.00;;
7835;SDS011;3963;42.658;23.298;2022-09-24T03:03:55;6.77;;;5.10;;
7835;SDS011;3963;42.658;23.298;2022-09-24T03:06:23;8.33;;;6.10;;
7835;SDS011;3963;42.658;23.298;2022-09-24T03:08:50;6.60;;;5.07;;
7835;SDS011;3963;42.658;23.298;2022-09-24T03:11:17;5.90;;;5.30;;
7835;SDS011;3963;42.658;23.298;2022-09-24T03:13:46;8.67;;;6.23;;
7835;SDS011;3963;42.658;23.298;2022-09-24T03:16:13;12.17;;;6.13;;
7835;SDS011;3963;42.658;23.298;2022-09-24T03:18:41;8.33;;;5.60;;
7835;SDS011;3963;42.658;23.298;2022-09-24T03:21:10;7.80;;;5.57;;
7835;SDS011;3963;42.658;23.298;2022-09-24T03:23:38;11.77;;;5.80;;
7835;SDS011;3963;42.658;23.298;2022-09-24T03:26:06;7.93;;;5.40;;
7835;SDS011;3963;42.658;23.298;2022-09-24T03:28:34;9.57;;;6.17;;
7835;SDS011;3963;42.658;23.298;2022-09-24T03:31:01;9.53;;;5.73;;
7835;SDS011;3963;42.658;23.298;2022-09-24T03:33:27;8.20;;;5.40;;
7835;SDS011;3963;42.658;23.298;2022-09-24T03:35:56;7.33;;;6.00;;
7835;SDS011;3963;42.658;23.298;2022-09-24T03:38:26;6.97;;;5.60;;
7835;SDS011;3963;42.658;23.298;2022-09-24T03:40:54;7.53;;;5.33;;
7835;SDS011;3963;42.658;23.298;2022-09-24T03:43:21;7.93;;;5.63;;
7835;SDS011;3963;42.658;23.298;2022-09-24T03:45:48;9.43;;;6.20;;
7835;SDS011;3963;42.658;23.298;2022-09-24T03:48:16;8.13;;;5.77;;
7835;SDS011;3963;42.658;23.298;2022-09-24T03:50:44;7.37;;;5.80;;
7835;SDS011;3963;42.658;23.298;2022-09-24T03:53:11;9.20;;;5.67;;
7835;SDS011;3963;42.658;23.298;2022-09-24T03:55:43;7.97;;;5.43;;
7835;SDS011;3963;42.658;23.298;2022-09-24T03:58:12;8.23;;;5.60;;
7835;SDS011;3963;42.658;23.298;2022-09-24T04:00:40;9.10;;;5.50;;
7835;SDS011;3963;42.658;23.298;2022-09-24T04:03:07;9.20;;;5.73;;
7835;SDS011;3963;42.658;23.298;2022-09-24T04:05:34;9.90;;;7.00;;
7835;SDS011;3963;42.658;23.298;2022-09-24T04:08:01;10.27;;;6.47;;
7835;SDS011;3963;42.658;23.298;2022-09-24T04:10:29;9.57;;;6.63;;
7835;SDS011;3963;42.658;23.298;2022-09-24T04:12:58;10.60;;;6.13;;
7835;SDS011;3963;42.658;23.298;2022-09-24T04:15:25;11.83;;;6.50;;
7835;SDS011;3963;42.658;23.298;2022-09-24T04:17:52;9.37;;;5.63;;
7835;SDS011;3963;42.658;23.298;2022-09-24T04:20:20;9.50;;;6.17;;
7835;SDS011;3963;42.658;23.298;2022-09-24T04:22:49;10.23;;;7.03;;
7835;SDS011;3963;42.658;23.298;2022-09-24T04:25:16;9.83;;;6.43;;
7835;SDS011;3963;42.658;23.298;2022-09-24T04:27:43;9.33;;;5.90;;
7835;SDS011;3963;42.658;23.298;2022-09-24T04:30:12;10.93;;;7.17;;
7835;SDS011;3963;42.658;23.298;2022-09-24T04:32:40;11.80;;;6.63;;
7835;SDS011;3963;42.658;23.298;2022-09-24T04:35:07;10.57;;;6.93;;
7835;SDS011;3963;42.658;23.298;2022-09-24T04:37:35;10.67;;;6.60;;
7835;SDS011;3963;42.658;23.298;2022-09-24T04:40:02;10.73;;;7.27;;
7835;SDS011;3963;42.658;23.298;2022-09-24T04:42:36;11.00;;;7.30;;
7835;SDS011;3963;42.658;23.298;2022-09-24T04:45:03;12.10;;;7.70;;
7835;SDS011;3963;42.658;23.298;2022-09-24T04:47:33;11.60;;;6.50;;
7835;SDS011;3963;42.658;23.298;2022-09-24T04:50:00;13.93;;;8.03;;
7835;SDS011;3963;42.658;23.298;2022-09-24T04:52:27;14.83;;;8.63;;
7835;SDS011;3963;42.658;23.298;2022-09-24T04:54:57;16.17;;;8.17;;
7835;SDS011;3963;42.658;23.298;2022-09-24T04:57:24;16.23;;;8.27;;
7835;SDS011;3963;42.658;23.298;2022-09-24T04:59:52;15.10;;;8.13;;
7835;SDS011;3963;42.658;23.298;2022-09-24T05:02:18;17.93;;;7.63;;
7835;SDS011;3963;42.658;23.298;2022-09-24T05:04:47;15.33;;;8.30;;
7835;SDS011;3963;42.658;23.298;2022-09-24T05:07:13;14.77;;;9.13;;
7835;SDS011;3963;42.658;23.298;2022-09-24T05:09:40;10.43;;;6.87;;
7835;SDS011;3963;42.658;23.298;2022-09-24T05:12:07;14.00;;;7.17;;
7835;SDS011;3963;42.658;23.298;2022-09-24T05:14:35;15.10;;;7.37;;
7835;SDS011;3963;42.658;23.298;2022-09-24T05:17:02;13.70;;;6.87;;
7835;SDS011;3963;42.658;23.298;2022-09-24T05:19:29;9.77;;;6.93;;
7835;SDS011;3963;42.658;23.298;2022-09-24T05:21:57;16.27;;;7.43;;
7835;SDS011;3963;42.658;23.298;2022-09-24T05:24:24;17.43;;;8.50;;
7835;SDS011;3963;42.658;23.298;2022-09-24T05:26:51;14.70;;;7.80;;
7835;SDS011;3963;42.658;23.298;2022-09-24T05:29:36;12.47;;;7.90;;
7835;SDS011;3963;42.658;23.298;2022-09-24T05:32:04;16.27;;;9.03;;
7835;SDS011;3963;42.658;23.298;2022-09-24T05:34:33;12.27;;;7.83;;
7835;SDS011;3963;42.658;23.298;2022-09-24T05:37:02;12.57;;;8.67;;
7835;SDS011;3963;42.658;23.298;2022-09-24T05:39:29;11.37;;;8.20;;
7835;SDS011;3963;42.658;23.298;2022-09-24T05:41:56;13.87;;;9.17;;
7835;SDS011;3963;42.658;23.298;2022-09-24T05:44:23;11.70;;;8.67;;
7835;SDS011;3963;42.658;23.298;2022-09-24T05:46:50;12.27;;;8.97;;
7835;SDS011;3963;42.658;23.298;2022-09-24T05:49:17;13.07;;;10.03;;
7835;SDS011;3963;42.658;23.298;2022-09-24T05:51:46;18.00;;;9.70;;
7835;SDS011;3963;42.658;23.298;2022-09-24T05:54:15;15.77;;;10.03;;
7835;SDS011;3963;42.658;23.298;2022-09-24T05:56:42;14.20;;;10.10;;
7835;SDS011;3963;42.658;23.298;2022-09-24T05:59:09;12.80;;;9.80;;
7835;SDS011;3963;42.658;23.298;2022-09-24T06:01:37;15.70;;;9.70;;
7835;SDS011;3963;42.658;23.298;2022-09-24T06:04:04;16.77;;;9.50;;
7835;SDS011;3963;42.658;23.298;2022-09-24T06:06:31;11.90;;;9.27;;
7835;SDS011;3963;42.658;23.298;2022-09-24T06:08:58;14.43;;;9.20;;
7835;SDS011;3963;42.658;23.298;2022-09-24T06:11:26;14.60;;;9.70;;
7835;SDS011;3963;42.658;23.298;2022-09-24T06:13:58;13.83;;;10.03;;
7835;SDS011;3963;42.658;23.298;2022-09-24T06:16:27;11.60;;;8.43;;
7835;SDS011;3963;42.658;23.298;2022-09-24T06:18:54;12.13;;;8.93;;
7835;SDS011;3963;42.658;23.298;2022-09-24T06:21:21;12.30;;;8.70;;
7835;SDS011;3963;42.658;23.298;2022-09-24T06:23:47;11.30;;;8.30;;
7835;SDS011;3963;42.658;23.298;2022-09-24T06:26:14;13.17;;;8.93;;
7835;SDS011;3963;42.658;23.298;2022-09-24T06:28:44;12.57;;;8.40;;
7835;SDS011;3963;42.658;23.298;2022-09-24T06:31:11;12.83;;;9.17;;
7835;SDS011;3963;42.658;23.298;2022-09-24T06:33:37;13.90;;;9.97;;
7835;SDS011;3963;42.658;23.298;2022-09-24T06:36:05;11.73;;;8.27;;
7835;SDS011;3963;42.658;23.298;2022-09-24T06:38:32;10.87;;;8.13;;
7835;SDS011;3963;42.658;23.298;2022-09-24T06:41:01;12.90;;;9.17;;
7835;SDS011;3963;42.658;23.298;2022-09-24T06:43:30;11.93;;;9.80;;
7835;SDS011;3963;42.658;23.298;2022-09-24T06:45:59;12.60;;;8.63;;
7835;SDS011;3963;42.658;23.298;2022-09-24T06:48:28;10.77;;;9.03;;
7835;SDS011;3963;42.658;23.298;2022-09-24T06:50:56;13.93;;;10.50;;
7835;SDS011;3963;42.658;23.298;2022-09-24T06:53:24;13.20;;;10.07;;
7835;SDS011;3963;42.658;23.298;2022-09-24T06:55:51;14.00;;;9.37;;
7835;SDS011;3963;42.658;23.298;2022-09-24T06:58:21;16.70;;;10.13;;
7835;SDS011;3963;42.658;23.298;2022-09-24T07:00:49;13.37;;;8.43;;
7835;SDS011;3963;42.658;23.298;2022-09-24T07:03:20;14.50;;;8.77;;
7835;SDS011;3963;42.658;23.298;2022-09-24T07:05:47;9.67;;;7.43;;
7835;SDS011;3963;42.658;23.298;2022-09-24T07:08:14;10.00;;;7.47;;
7835;SDS011;3963;42.658;23.298;2022-09-24T07:10:42;10.40;;;8.40;;
7835;SDS011;3963;42.658;23.298;2022-09-24T07:13:10;11.87;;;7.80;;
7835;SDS011;3963;42.658;23.298;2022-09-24T07:15:37;10.93;;;8.30;;
7835;SDS011;3963;42.658;23.298;2022-09-24T07:18:04;11.47;;;8.73;;
7835;SDS011;3963;42.658;23.298;2022-09-24T07:20:33;12.20;;;8.13;;
7835;SDS011;3963;42.658;23.298;2022-09-24T07:23:01;14.03;;;8.67;;
7835;SDS011;3963;42.658;23.298;2022-09-24T07:25:28;11.43;;;8.20;;
7835;SDS011;3963;42.658;23.298;2022-09-24T07:27:59;10.57;;;7.70;;
7835;SDS011;3963;42.658;23.298;2022-09-24T07:30:27;10.80;;;7.87;;
7835;SDS011;3963;42.658;23.298;2022-09-24T07:32:54;10.37;;;8.47;;
7835;SDS011;3963;42.658;23.298;2022-09-24T07:35:21;13.63;;;8.03;;
7835;SDS011;3963;42.658;23.298;2022-09-24T07:37:54;11.17;;;6.80;;
7835;SDS011;3963;42.658;23.298;2022-09-24T07:40:22;10.97;;;7.10;;
7835;SDS011;3963;42.658;23.298;2022-09-24T07:42:50;11.30;;;8.07;;
7835;SDS011;3963;42.658;23.298;2022-09-24T07:45:17;10.00;;;6.43;;
7835;SDS011;3963;42.658;23.298;2022-09-24T07:47:44;16.80;;;6.07;;
7835;SDS011;3963;42.658;23.298;2022-09-24T07:50:10;6.47;;;5.50;;
7835;SDS011;3963;42.658;23.298;2022-09-24T07:52:37;8.53;;;5.67;;
7835;SDS011;3963;42.658;23.298;2022-09-24T07:55:06;9.20;;;5.57;;
7835;SDS011;3963;42.658;23.298;2022-09-24T07:57:34;8.47;;;5.63;;
7835;SDS011;3963;42.658;23.298;2022-09-24T08:00:01;12.67;;;6.00;;
7835;SDS011;3963;42.658;23.298;2022-09-24T08:02:28;6.23;;;5.43;;
7835;SDS011;3963;42.658;23.298;2022-09-24T08:04:55;11.43;;;5.70;;
7835;SDS011;3963;42.658;23.298;2022-09-24T08:07:22;8.97;;;6.03;;
7835;SDS011;3963;42.658;23.298;2022-09-24T08:09:49;8.97;;;5.87;;
7835;SDS011;3963;42.658;23.298;2022-09-24T08:12:17;6.87;;;5.50;;
7835;SDS011;3963;42.658;23.298;2022-09-24T08:14:44;8.20;;;6.10;;
7835;SDS011;3963;42.658;23.298;2022-09-24T08:17:10;8.63;;;6.17;;
7835;SDS011;3963;42.658;23.298;2022-09-24T08:19:37;10.30;;;5.53;;
7835;SDS011;3963;42.658;23.298;2022-09-24T08:22:07;9.03;;;6.47;;
7835;SDS011;3963;42.658;23.298;2022-09-24T08:24:34;7.87;;;5.63;;
7835;SDS011;3963;42.658;23.298;2022-09-24T08:27:01;8.57;;;5.90;;
7835;SDS011;3963;42.658;23.298;2022-09-24T08:29:29;8.40;;;5.47;;
7835;SDS011;3963;42.658;23.298;2022-09-24T08:31:55;9.60;;;5.43;;
7835;SDS011;3963;42.658;23.298;2022-09-24T08:34:22;7.70;;;5.70;;
7835;SDS011;3963;42.658;23.298;2022-09-24T08:36:49;8.93;;;6.10;;
7835;SDS011;3963;42.658;23.298;2022-09-24T08:39:16;12.03;;;6.03;;
7835;SDS011;3963;42.658;23.298;2022-09-24T08:41:53;9.70;;;6.47;;
7835;SDS011;3963;42.658;23.298;2022-09-24T08:44:24;10.23;;;6.50;;
7835;SDS011;3963;42.658;23.298;2022-09-24T08:47:15;11.50;;;5.90;;
7835;SDS011;3963;42.658;23.298;2022-09-24T08:49:49;9.53;;;5.77;;
7835;SDS011;3963;42.658;23.298;2022-09-24T08:52:25;8.27;;;5.87;;
7835;SDS011;3963;42.658;23.298;2022-09-24T08:55:03;8.90;;;5.93;;
7835;SDS011;3963;42.658;23.298;2022-09-24T08:57:35;10.23;;;5.77;;
7835;SDS011;3963;42.658;23.298;2022-09-24T09:00:05;7.53;;;6.00;;
7835;SDS011;3963;42.658;23.298;2022-09-24T09:02:40;8.33;;;5.67;;
7835;SDS011;3963;42.658;23.298;2022-09-24T09:05:17;7.87;;;5.33;;
7835;SDS011;3963;42.658;23.298;2022-09-24T09:07:53;9.80;;;5.43;;
7835;SDS011;3963;42.658;23.298;2022-09-24T09:10:26;7.23;;;5.10;;
7835;SDS011;3963;42.658;23.298;2022-09-24T09:12:58;9.13;;;5.90;;
7835;SDS011;3963;42.658;23.298;2022-09-24T09:15:30;8.87;;;5.30;;
7835;SDS011;3963;42.658;23.298;2022-09-24T09:18:03;6.63;;;5.57;;
7835;SDS011;3963;42.658;23.298;2022-09-24T09:20:37;7.60;;;5.60;;
7835;SDS011;3963;42.658;23.298;2022-09-24T09:23:11;10.23;;;5.93;;
7835;SDS011;3963;42.658;23.298;2022-09-24T09:28:11;9.23;;;5.63;;
7835;SDS011;3963;42.658;23.298;2022-09-24T09:30:42;6.80;;;5.23;;
7835;SDS011;3963;42.658;23.298;2022-09-24T09:33:23;9.43;;;5.50;;
7835;SDS011;3963;42.658;23.298;2022-09-24T09:35:59;7.77;;;5.90;;
7835;SDS011;3963;42.658;23.298;2022-09-24T09:38:37;7.60;;;5.90;;
7835;SDS011;3963;42.658;23.298;2022-09-24T09:41:11;9.20;;;6.03;;
7835;SDS011;3963;42.658;23.298;2022-09-24T09:43:45;6.87;;;5.83;;
7835;SDS011;3963;42.658;23.298;2022-09-24T09:46:13;9.30;;;6.20;;
7835;SDS011;3963;42.658;23.298;2022-09-24T09:48:46;9.43;;;5.83;;
7835;SDS011;3963;42.658;23.298;2022-09-24T09:51:19;8.73;;;6.20;;
7835;SDS011;3963;42.658;23.298;2022-09-24T09:53:55;9.60;;;6.47;;
7835;SDS011;3963;42.658;23.298;2022-09-24T09:56:23;9.87;;;6.67;;
7835;SDS011;3963;42.658;23.298;2022-09-24T09:59:00;9.93;;;6.30;;
7835;SDS011;3963;42.658;23.298;2022-09-24T10:01:32;11.57;;;6.37;;
7835;SDS011;3963;42.658;23.298;2022-09-24T10:04:02;7.93;;;6.27;;
7835;SDS011;3963;42.658;23.298;2022-09-24T10:06:30;7.00;;;6.07;;
7835;SDS011;3963;42.658;23.298;2022-09-24T10:09:05;12.10;;;7.00;;
7835;SDS011;3963;42.658;23.298;2022-09-24T10:11:33;9.27;;;5.73;;
7835;SDS011;3963;42.658;23.298;2022-09-24T10:14:00;9.73;;;5.67;;
7835;SDS011;3963;42.658;23.298;2022-09-24T10:16:28;9.33;;;5.60;;
7835;SDS011;3963;42.658;23.298;2022-09-24T10:18:54;9.47;;;6.03;;
7835;SDS011;3963;42.658;23.298;2022-09-24T10:21:25;9.53;;;5.40;;
7835;SDS011;3963;42.658;23.298;2022-09-24T10:23:58;7.17;;;5.00;;
7835;SDS011;3963;42.658;23.298;2022-09-24T10:26:33;7.70;;;5.67;;
7835;SDS011;3963;42.658;23.298;2022-09-24T10:29:02;8.20;;;5.63;;
7835;SDS011;3963;42.658;23.298;2022-09-24T10:31:46;8.77;;;5.43;;
7835;SDS011;3963;42.658;23.298;2022-09-24T10:34:18;8.23;;;4.53;;
7835;SDS011;3963;42.658;23.298;2022-09-24T10:36:51;10.50;;;4.20;;
7835;SDS011;3963;42.658;23.298;2022-09-24T10:39:19;12.47;;;4.40;;
7835;SDS011;3963;42.658;23.298;2022-09-24T10:41:47;6.43;;;4.23;;
7835;SDS011;3963;42.658;23.298;2022-09-24T10:44:15;5.07;;;3.37;;
7835;SDS011;3963;42.658;23.298;2022-09-24T10:49:57;5.67;;;3.97;;
7835;SDS011;3963;42.658;23.298;2022-09-24T10:52:48;6.30;;;3.40;;
7835;SDS011;3963;42.658;23.298;2022-09-24T10:55:21;3.53;;;2.30;;
7835;SDS011;3963;42.658;23.298;2022-09-24T10:58:01;3.10;;;2.50;;
7835;SDS011;3963;42.658;23.298;2022-09-24T11:00:36;3.43;;;2.30;;
7835;SDS011;3963;42.658;23.298;2022-09-24T11:03:19;2.30;;;2.10;;
7835;SDS011;3963;42.658;23.298;2022-09-24T11:06:09;3.03;;;2.20;;
7835;SDS011;3963;42.658;23.298;2022-09-24T11:08:53;3.73;;;2.50;;
7835;SDS011;3963;42.658;23.298;2022-09-24T11:11:30;4.50;;;2.33;;
7835;SDS011;3963;42.658;23.298;2022-09-24T11:14:12;7.83;;;3.20;;
7835;SDS011;3963;42.658;23.298;2022-09-24T11:19:48;5.03;;;3.23;;
7835;SDS011;3963;42.658;23.298;2022-09-24T11:22:25;3.43;;;2.30;;
7835;SDS011;3963;42.658;23.298;2022-09-24T11:25:12;3.93;;;2.20;;
7835;SDS011;3963;42.658;23.298;2022-09-24T11:27:54;4.13;;;2.70;;
7835;SDS011;3963;42.658;23.298;2022-09-24T11:30:30;2.20;;;2.00;;
7835;SDS011;3963;42.658;23.298;2022-09-24T11:33:12;3.70;;;1.93;;
7835;SDS011;3963;42.658;23.298;2022-09-24T11:39:00;2.87;;;2.23;;
7835;SDS011;3963;42.658;23.298;2022-09-24T11:41:41;2.87;;;2.13;;
7835;SDS011;3963;42.658;23.298;2022-09-24T11:44:28;5.03;;;2.10;;
7835;SDS011;3963;42.658;23.298;2022-09-24T11:47:15;4.93;;;2.37;;
7835;SDS011;3963;42.658;23.298;2022-09-24T11:50:01;3.03;;;2.07;;
7835;SDS011;3963;42.658;23.298;2022-09-24T11:52:41;5.63;;;2.30;;
7835;SDS011;3963;42.658;23.298;2022-09-24T11:55:14;4.93;;;2.60;;
7835;SDS011;3963;42.658;23.298;2022-09-24T11:57:46;3.00;;;2.50;;
7835;SDS011;3963;42.658;23.298;2022-09-24T12:00:19;3.53;;;2.50;;
7835;SDS011;3963;42.658;23.298;2022-09-24T12:02:48;4.80;;;2.43;;
7835;SDS011;3963;42.658;23.298;2022-09-24T12:05:20;3.53;;;2.13;;
7835;SDS011;3963;42.658;23.298;2022-09-24T12:07:54;3.60;;;2.10;;
7835;SDS011;3963;42.658;23.298;2022-09-24T12:10:27;2.50;;;2.30;;
7835;SDS011;3963;42.658;23.298;2022-09-24T12:13:03;2.27;;;2.07;;
7835;SDS011;3963;42.658;23.298;2022-09-24T12:15:47;4.53;;;2.00;;
7835;SDS011;3963;42.658;23.298;2022-09-24T12:18:19;2.93;;;2.23;;
7835;SDS011;3963;42.658;23.298;2022-09-24T12:20:49;3.20;;;2.60;;
7835;SDS011;3963;42.658;23.298;2022-09-24T12:23:21;2.50;;;2.13;;
7835;SDS011;3963;42.658;23.298;2022-09-24T12:25:52;4.17;;;2.30;;
7835;SDS011;3963;42.658;23.298;2022-09-24T12:28:25;2.43;;;2.20;;
7835;SDS011;3963;42.658;23.298;2022-09-24T12:31:18;5.00;;;2.43;;
7835;SDS011;3963;42.658;23.298;2022-09-24T12:34:09;3.33;;;2.10;;
7835;SDS011;3963;42.658;23.298;2022-09-24T12:36:49;7.77;;;5.67;;
7835;SDS011;3963;42.658;23.298;2022-09-24T12:39:23;2.70;;;2.47;;
7835;SDS011;3963;42.658;23.298;2022-09-24T12:41:55;2.87;;;2.57;;
7835;SDS011;3963;42.658;23.298;2022-09-24T12:44:30;3.47;;;2.60;;
7835;SDS011;3963;42.658;23.298;2022-09-24T12:47:04;4.27;;;2.30;;
7835;SDS011;3963;42.658;23.298;2022-09-24T12:49:42;3.43;;;2.60;;
7835;SDS011;3963;42.658;23.298;2022-09-24T12:52:17;3.00;;;2.20;;
7835;SDS011;3963;42.658;23.298;2022-09-24T12:54:52;4.30;;;2.10;;
7835;SDS011;3963;42.658;23.298;2022-09-24T12:57:23;2.20;;;1.90;;
7835;SDS011;3963;42.658;23.298;2022-09-24T12:59:54;2.47;;;2.23;;
7835;SDS011;3963;42.658;23.298;2022-09-24T13:02:23;3.03;;;2.50;;
7835;SDS011;3963;42.658;23.298;2022-09-24T13:05:13;4.10;;;2.40;;
7835;SDS011;3963;42.658;23.298;2022-09-24T13:07:53;3.70;;;2.07;;
7835;SDS011;3963;42.658;23.298;2022-09-24T13:10:22;2.83;;;2.47;;
7835;SDS011;3963;42.658;23.298;2022-09-24T13:12:51;4.70;;;2.30;;
7835;SDS011;3963;42.658;23.298;2022-09-24T13:15:30;3.00;;;2.70;;
7835;SDS011;3963;42.658;23.298;2022-09-24T13:18:13;4.13;;;2.57;;
7835;SDS011;3963;42.658;23.298;2022-09-24T13:20:55;5.60;;;3.60;;
7835;SDS011;3963;42.658;23.298;2022-09-24T13:23:29;5.47;;;3.30;;
7835;SDS011;3963;42.658;23.298;2022-09-24T13:26:12;2.87;;;1.97;;
7835;SDS011;3963;42.658;23.298;2022-09-24T13:28:52;5.00;;;2.40;;
7835;SDS011;3963;42.658;23.298;2022-09-24T13:31:24;3.37;;;2.17;;
7835;SDS011;3963;42.658;23.298;2022-09-24T13:33:57;7.07;;;2.83;;
7835;SDS011;3963;42.658;23.298;2022-09-24T13:36:31;2.57;;;2.30;;
7835;SDS011;3963;42.658;23.298;2022-09-24T13:39:04;2.40;;;2.20;;
7835;SDS011;3963;42.658;23.298;2022-09-24T13:41:40;2.30;;;2.10;;
7835;SDS011;3963;42.658;23.298;2022-09-24T13:44:14;5.20;;;2.10;;
7835;SDS011;3963;42.658;23.298;2022-09-24T13:46:49;4.93;;;2.60;;
7835;SDS011;3963;42.658;23.298;2022-09-24T13:49:21;3.97;;;2.47;;
7835;SDS011;3963;42.658;23.298;2022-09-24T13:51:51;3.40;;;2.67;;
7835;SDS011;3963;42.658;23.298;2022-09-24T13:54:25;2.67;;;2.40;;
7835;SDS011;3963;42.658;23.298;2022-09-24T13:57:00;4.33;;;2.40;;
7835;SDS011;3963;42.658;23.298;2022-09-24T13:59:37;2.90;;;2.53;;
7835;SDS011;3963;42.658;23.298;2022-09-24T14:02:18;3.33;;;2.30;;
7835;SDS011;3963;42.658;23.298;2022-09-24T14:04:52;5.17;;;2.07;;
7835;SDS011;3963;42.658;23.298;2022-09-24T14:07:20;2.73;;;2.30;;
7835;SDS011;3963;42.658;23.298;2022-09-24T14:09:47;4.90;;;2.87;;
7835;SDS011;3963;42.658;23.298;2022-09-24T14:12:15;5.30;;;2.60;;
7835;SDS011;3963;42.658;23.298;2022-09-24T14:14:46;2.57;;;2.37;;
7835;SDS011;3963;42.658;23.298;2022-09-24T14:17:18;3.40;;;2.37;;
7835;SDS011;3963;42.658;23.298;2022-09-24T14:19:46;5.53;;;2.70;;
7835;SDS011;3963;42.658;23.298;2022-09-24T14:22:15;6.67;;;2.30;;
7835;SDS011;3963;42.658;23.298;2022-09-24T14:24:47;4.40;;;3.07;;
7835;SDS011;3963;42.658;23.298;2022-09-24T14:27:19;3.20;;;2.70;;
7835;SDS011;3963;42.658;23.298;2022-09-24T14:29:49;3.97;;;2.63;;
7835;SDS011;3963;42.658;23.298;2022-09-24T14:32:23;2.70;;;2.40;;
7835;SDS011;3963;42.658;23.298;2022-09-24T14:34:54;2.87;;;2.43;;
7835;SDS011;3963;42.658;23.298;2022-09-24T14:37:25;5.73;;;2.50;;
7835;SDS011;3963;42.658;23.298;2022-09-24T14:39:56;3.40;;;2.50;;
7835;SDS011;3963;42.658;23.298;2022-09-24T14:42:26;2.73;;;2.30;;
7835;SDS011;3963;42.658;23.298;2022-09-24T14:44:57;2.93;;;2.70;;
7835;SDS011;3963;42.658;23.298;2022-09-24T14:47:27;5.93;;;3.50;;
7835;SDS011;3963;42.658;23.298;2022-09-24T14:49:55;3.20;;;2.40;;
7835;SDS011;3963;42.658;23.298;2022-09-24T14:52:29;5.23;;;2.63;;
7835;SDS011;3963;42.658;23.298;2022-09-24T14:55:02;6.83;;;2.73;;
7835;SDS011;3963;42.658;23.298;2022-09-24T14:57:39;5.20;;;2.37;;
7835;SDS011;3963;42.658;23.298;2022-09-24T15:00:19;7.60;;;2.73;;
7835;SDS011;3963;42.658;23.298;2022-09-24T15:02:50;3.40;;;2.50;;
7835;SDS011;3963;42.658;23.298;2022-09-24T15:05:22;4.23;;;2.80;;
7835;SDS011;3963;42.658;23.298;2022-09-24T15:07:50;4.43;;;2.50;;
7835;SDS011;3963;42.658;23.298;2022-09-24T15:10:19;3.73;;;2.90;;
7835;SDS011;3963;42.658;23.298;2022-09-24T15:12:48;5.80;;;3.50;;
7835;SDS011;3963;42.658;23.298;2022-09-24T15:15:26;5.70;;;4.17;;
7835;SDS011;3963;42.658;23.298;2022-09-24T15:17:57;4.93;;;3.43;;
7835;SDS011;3963;42.658;23.298;2022-09-24T15:20:24;6.13;;;2.97;;
7835;SDS011;3963;42.658;23.298;2022-09-24T15:22:51;5.47;;;2.90;;
7835;SDS011;3963;42.658;23.298;2022-09-24T15:25:18;3.70;;;2.93;;
7835;SDS011;3963;42.658;23.298;2022-09-24T15:27:44;4.43;;;3.00;;
7835;SDS011;3963;42.658;23.298;2022-09-24T15:30:17;3.67;;;3.10;;
7835;SDS011;3963;42.658;23.298;2022-09-24T15:32:45;5.73;;;3.57;;
7835;SDS011;3963;42.658;23.298;2022-09-24T15:35:15;5.20;;;3.47;;
7835;SDS011;3963;42.658;23.298;2022-09-24T15:37:42;6.67;;;3.87;;